createdAt,value
2023-03-07T00:01:25.213Z,8.00
2023-03-07T00:09:53.233Z,7.84
2023-03-07T00:12:25.952Z,7.94
2023-03-07T00:14:58.674Z,7.98
2023-03-07T00:17:32.634Z,8.01
2023-03-07T00:20:07.436Z,7.99
2023-03-07T00:22:40.093Z,7.95
2023-03-07T00:25:12.801Z,8.06
2023-03-07T00:27:45.394Z,8.02
2023-03-07T00:30:18.549Z,8.00
2023-03-07T00:32:52.483Z,8.02
2023-03-07T00:35:25.797Z,8.13
2023-03-07T00:37:59.853Z,8.07
2023-03-07T00:40:32.572Z,8.03
2023-03-07T00:43:05.234Z,8.09
2023-03-07T00:45:37.953Z,8.02
2023-03-07T00:48:12.371Z,7.99
2023-03-07T00:50:45.316Z,8.07
2023-03-07T00:53:18.920Z,8.04
2023-03-07T00:55:55.661Z,8.01
2023-03-07T00:58:28.925Z,7.99
2023-03-07T01:01:02.363Z,7.98
2023-03-07T01:03:36.770Z,8.10
2023-03-07T01:06:10.397Z,8.00
2023-03-07T01:08:46.116Z,7.97
2023-03-07T01:11:20.968Z,8.02
2023-03-07T01:13:55.893Z,7.98
2023-03-07T01:16:30.420Z,7.92
2023-03-07T01:19:08.162Z,7.99
2023-03-07T01:21:41.853Z,7.95
2023-03-07T01:24:16.047Z,7.99
2023-03-07T01:26:49.106Z,8.02
2023-03-07T01:29:21.695Z,7.98
2023-03-07T01:31:55.538Z,7.97
2023-03-07T01:34:29.724Z,7.97
2023-03-07T01:37:03.113Z,7.93
2023-03-07T01:39:35.824Z,7.95
2023-03-07T01:42:14.121Z,7.92
2023-03-07T01:45:00.618Z,7.91
2023-03-07T01:47:43.567Z,8.01
2023-03-07T01:50:18.859Z,7.96
2023-03-07T01:52:54.082Z,8.00
2023-03-07T01:55:28.974Z,7.91
2023-03-07T01:58:09.869Z,7.90
2023-03-07T02:00:43.154Z,7.91
2023-03-07T02:03:19.510Z,7.89
2023-03-07T02:05:55.083Z,7.82
2023-03-07T02:08:29.869Z,7.91
2023-03-07T02:11:02.676Z,7.91
2023-03-07T02:13:36.011Z,8.00
2023-03-07T02:16:08.971Z,7.86
2023-03-07T02:18:43.585Z,7.87
2023-03-07T02:21:23.304Z,7.88
2023-03-07T02:23:59.041Z,7.89
2023-03-07T02:26:39.986Z,7.94
2023-03-07T02:29:13.184Z,7.93
2023-03-07T02:31:47.115Z,7.98
2023-03-07T02:34:21.728Z,7.96
2023-03-07T02:36:59.378Z,7.94
2023-03-07T02:39:32.311Z,7.96
2023-03-07T02:42:10.832Z,7.99
2023-03-07T02:44:57.022Z,7.99
2023-03-07T02:47:30.517Z,7.88
2023-03-07T02:50:05.272Z,7.87
2023-03-07T02:52:39.823Z,8.01
2023-03-07T02:55:12.803Z,7.90
2023-03-07T02:57:53.714Z,7.90
2023-03-07T03:00:26.665Z,7.96
2023-03-07T03:02:59.392Z,7.99
2023-03-07T03:05:32.126Z,8.02
2023-03-07T03:08:05.056Z,7.94
2023-03-07T03:10:37.765Z,7.94
2023-03-07T03:13:11.999Z,7.92
2023-03-07T03:15:47.580Z,7.97
2023-03-07T03:18:20.257Z,7.97
2023-03-07T03:20:52.965Z,7.97
2023-03-07T03:23:28.011Z,8.05
2023-03-07T03:26:01.287Z,8.04
2023-03-07T03:28:38.594Z,8.03
2023-03-07T03:31:15.178Z,7.98
2023-03-07T03:33:49.374Z,7.89
2023-03-07T03:36:25.718Z,7.86
2023-03-07T03:39:00.886Z,7.94
2023-03-07T03:41:35.081Z,7.98
2023-03-07T03:44:11.621Z,7.96
2023-03-07T03:46:44.496Z,7.96
2023-03-07T03:49:17.549Z,7.88
2023-03-07T03:51:53.791Z,7.85
2023-03-07T03:54:26.858Z,7.81
2023-03-07T03:56:59.886Z,7.80
2023-03-07T03:59:34.210Z,7.83
2023-03-07T04:02:06.933Z,7.90
2023-03-07T04:04:39.926Z,7.84
2023-03-07T04:07:12.824Z,7.80
2023-03-07T04:09:45.445Z,7.81
2023-03-07T04:12:18.632Z,7.76
2023-03-07T04:14:52.707Z,7.79
2023-03-07T04:17:25.451Z,7.85
2023-03-07T04:19:58.410Z,7.81
2023-03-07T04:22:31.034Z,7.83
2023-03-07T04:25:04.022Z,7.85
2023-03-07T04:27:36.979Z,7.85
2023-03-07T04:30:12.227Z,7.82
2023-03-07T04:32:45.318Z,7.75
2023-03-07T04:35:18.153Z,7.79
2023-03-07T04:37:51.322Z,7.83
2023-03-07T04:40:24.088Z,7.81
2023-03-07T04:42:57.006Z,7.85
2023-03-07T04:45:31.281Z,7.80
2023-03-07T04:48:04.011Z,7.82
2023-03-07T04:50:37.848Z,7.77
2023-03-07T04:53:10.616Z,7.75
2023-03-07T04:55:43.638Z,7.70
2023-03-07T04:58:17.564Z,7.69
2023-03-07T05:00:51.797Z,7.74
2023-03-07T05:03:25.243Z,7.71
2023-03-07T05:06:02.168Z,7.81
2023-03-07T05:08:35.834Z,7.69
2023-03-07T05:11:08.578Z,7.75
2023-03-07T05:13:41.884Z,7.76
2023-03-07T05:16:17.584Z,7.74
2023-03-07T05:18:50.321Z,7.71
2023-03-07T05:21:23.421Z,7.69
2023-03-07T05:23:56.648Z,7.66
2023-03-07T05:26:29.941Z,7.67
2023-03-07T05:29:02.612Z,7.62
2023-03-07T05:31:37.073Z,7.65
2023-03-07T05:34:11.975Z,7.56
2023-03-07T05:36:45.971Z,7.60
2023-03-07T05:39:19.143Z,7.54
2023-03-07T05:41:51.868Z,7.52
2023-03-07T05:44:25.064Z,7.55
2023-03-07T05:46:59.703Z,7.46
2023-03-07T05:49:32.514Z,7.45
2023-03-07T05:52:05.646Z,7.43
2023-03-07T05:54:38.432Z,7.42
2023-03-07T05:57:11.069Z,7.37
2023-03-07T05:59:45.304Z,7.43
2023-03-07T06:02:19.335Z,7.43
2023-03-07T06:04:52.082Z,7.42
2023-03-07T06:07:25.225Z,7.36
2023-03-07T06:09:58.113Z,7.34
2023-03-07T06:12:30.919Z,7.34
2023-03-07T06:15:04.393Z,7.32
2023-03-07T06:17:40.878Z,7.34
2023-03-07T06:20:16.126Z,7.36
2023-03-07T06:22:49.246Z,7.33
2023-03-07T06:25:22.666Z,7.31
2023-03-07T06:27:59.675Z,7.28
2023-03-07T06:30:32.532Z,7.29
2023-03-07T06:33:06.813Z,7.36
2023-03-07T06:35:40.771Z,7.28
2023-03-07T06:38:14.258Z,7.29
2023-03-07T06:40:47.063Z,7.24
2023-03-07T06:43:19.655Z,7.22
2023-03-07T06:45:52.610Z,7.26
2023-03-07T06:48:27.770Z,7.21
2023-03-07T06:51:00.739Z,7.28
2023-03-07T06:53:33.501Z,7.17
2023-03-07T06:56:08.072Z,7.19
2023-03-07T06:58:41.680Z,7.22
2023-03-07T07:01:18.019Z,7.17
2023-03-07T07:03:53.652Z,7.07
2023-03-07T07:06:26.362Z,7.14
2023-03-07T07:08:59.556Z,7.18
2023-03-07T07:11:36.372Z,7.19
2023-03-07T07:14:10.579Z,7.18
2023-03-07T07:16:44.551Z,7.15
2023-03-07T07:19:18.637Z,7.13
2023-03-07T07:21:52.666Z,7.17
2023-03-07T07:24:25.313Z,7.17
2023-03-07T07:26:59.187Z,7.16
2023-03-07T07:29:32.073Z,7.13
2023-03-07T07:32:05.250Z,7.18
2023-03-07T07:34:39.821Z,7.18
2023-03-07T07:37:13.420Z,7.19
2023-03-07T07:39:46.034Z,7.15
2023-03-07T07:42:18.883Z,7.20
2023-03-07T07:45:06.445Z,7.14
2023-03-07T07:47:39.327Z,7.20
2023-03-07T07:50:14.191Z,7.16
2023-03-07T07:52:47.972Z,7.12
2023-03-07T07:55:20.566Z,7.10
2023-03-07T07:57:53.308Z,7.11
2023-03-07T08:00:26.258Z,7.13
2023-03-07T08:02:59.581Z,7.11
2023-03-07T08:05:33.519Z,7.15
2023-03-07T08:08:06.310Z,7.10
2023-03-07T08:10:43.045Z,7.09
2023-03-07T08:13:16.623Z,7.11
2023-03-07T08:15:49.181Z,7.10
2023-03-07T08:18:22.239Z,7.09
2023-03-07T08:21:00.050Z,7.09
2023-03-07T08:23:32.682Z,7.04
2023-03-07T08:26:06.333Z,7.04
2023-03-07T08:28:39.108Z,7.05
2023-03-07T08:31:13.127Z,7.05
2023-03-07T08:33:47.300Z,7.09
2023-03-07T08:36:21.532Z,7.11
2023-03-07T08:38:54.241Z,7.06
2023-03-07T08:41:26.959Z,7.13
2023-03-07T08:43:59.538Z,7.14
2023-03-07T08:46:32.247Z,7.10
2023-03-07T08:49:05.064Z,7.11
2023-03-07T08:51:41.653Z,7.12
2023-03-07T08:54:14.409Z,7.13
2023-03-07T08:56:46.946Z,7.15
2023-03-07T08:59:19.447Z,7.25
2023-03-07T09:01:52.202Z,7.28
2023-03-07T09:04:25.401Z,7.29
2023-03-07T09:07:01.512Z,7.30
2023-03-07T09:09:34.492Z,7.31
2023-03-07T09:12:07.540Z,7.36
2023-03-07T09:14:40.306Z,7.41
2023-03-07T09:17:14.028Z,7.43
2023-03-07T09:19:47.074Z,7.52
2023-03-07T09:22:21.015Z,7.48
2023-03-07T09:24:53.635Z,7.48
2023-03-07T09:27:26.273Z,7.47
2023-03-07T09:29:58.852Z,7.59
2023-03-07T09:32:32.897Z,7.57
2023-03-07T09:35:05.964Z,7.66
2023-03-07T09:37:39.946Z,7.64
2023-03-07T09:40:17.035Z,7.63
2023-03-07T09:42:55.860Z,7.63
2023-03-07T09:45:43.737Z,7.72
2023-03-07T09:48:43.786Z,7.66
2023-03-07T09:51:18.368Z,7.64
2023-03-07T09:53:54.164Z,7.72
2023-03-07T09:56:30.054Z,7.65
2023-03-07T09:59:13.709Z,7.82
2023-03-07T10:01:56.609Z,7.81
2023-03-07T10:04:35.423Z,7.77
2023-03-07T10:07:10.589Z,7.94
2023-03-07T10:09:45.229Z,7.79
2023-03-07T10:12:27.028Z,7.79
2023-03-07T10:15:06.950Z,7.92
2023-03-07T10:17:49.257Z,7.99
2023-03-07T10:20:25.243Z,8.05
2023-03-07T10:23:02.289Z,8.03
2023-03-07T10:25:41.874Z,8.09
2023-03-07T10:28:20.131Z,8.11
2023-03-07T10:30:55.745Z,8.04
2023-03-07T10:33:30.101Z,8.11
2023-03-07T10:36:07.235Z,8.18
2023-03-07T10:38:45.185Z,8.12
2023-03-07T10:41:21.514Z,8.19
2023-03-07T10:43:54.990Z,8.18
2023-03-07T10:46:30.184Z,8.18
2023-03-07T10:49:10.424Z,8.22
2023-03-07T10:51:52.089Z,8.26
2023-03-07T10:54:30.270Z,8.27
2023-03-07T10:57:08.452Z,8.25
2023-03-07T10:59:43.618Z,8.28
2023-03-07T11:02:31.348Z,8.28
2023-03-07T11:05:05.078Z,8.22
2023-03-07T11:07:37.791Z,8.27
2023-03-07T11:10:25.747Z,8.28
2023-03-07T11:12:59.672Z,8.28
2023-03-07T11:15:32.333Z,8.26
2023-03-07T11:18:06.364Z,8.29
2023-03-07T11:20:48.639Z,8.27
2023-03-07T11:23:23.385Z,8.27
2023-03-07T11:25:57.007Z,8.30
2023-03-07T11:28:33.402Z,8.32
2023-03-07T11:31:13.167Z,8.36
2023-03-07T11:33:59.155Z,8.36
2023-03-07T11:36:33.188Z,8.35
2023-03-07T11:39:12.070Z,8.39
2023-03-07T11:41:47.403Z,8.36
2023-03-07T11:44:26.947Z,8.32
2023-03-07T11:47:08.235Z,8.30
2023-03-07T11:49:45.417Z,8.25
2023-03-07T11:52:31.505Z,8.27
2023-03-07T11:55:12.207Z,8.28
2023-03-07T11:57:52.631Z,8.29
2023-03-07T12:00:32.368Z,8.26
2023-03-07T12:03:17.401Z,8.25
2023-03-07T12:06:02.206Z,8.28
2023-03-07T12:08:41.943Z,8.27
2023-03-07T12:11:30.040Z,8.25
2023-03-07T12:14:09.813Z,8.26
2023-03-07T12:16:49.733Z,8.27
2023-03-07T12:19:32.813Z,8.27
2023-03-07T12:22:26.538Z,8.18
2023-03-07T12:25:24.760Z,8.23
2023-03-07T12:28:03.152Z,8.28
2023-03-07T12:30:38.569Z,8.26
2023-03-07T12:33:18.623Z,8.28
2023-03-07T12:35:54.632Z,8.28
2023-03-07T12:38:30.218Z,8.30
2023-03-07T12:41:05.722Z,8.30
2023-03-07T12:43:42.161Z,8.11
2023-03-07T12:58:23.303Z,8.21
2023-03-07T13:00:59.161Z,8.21
2023-03-07T13:03:38.895Z,8.10
2023-03-07T13:06:14.844Z,8.11
2023-03-07T13:08:48.677Z,8.08
2023-03-07T13:11:22.910Z,8.19
2023-03-07T13:13:58.430Z,8.19
2023-03-07T13:16:36.557Z,8.21
2023-03-07T13:19:28.042Z,8.22
2023-03-07T13:22:00.695Z,8.34
2023-03-07T13:24:34.904Z,8.32
2023-03-07T13:27:15.317Z,8.32
2023-03-07T13:30:06.885Z,8.35
2023-03-07T13:32:58.165Z,8.32
2023-03-07T13:35:46.627Z,8.32
2023-03-07T13:38:31.708Z,8.38
2023-03-07T13:41:11.733Z,8.38
2023-03-07T13:44:01.976Z,8.38
2023-03-07T13:46:51.152Z,8.12
2023-03-07T13:49:47.526Z,8.07
2023-03-07T13:52:30.205Z,8.07
2023-03-07T13:55:04.315Z,8.04
2023-03-07T13:57:41.625Z,8.08
2023-03-07T14:00:24.545Z,8.26
2023-03-07T14:02:57.618Z,8.21
2023-03-07T14:05:32.906Z,8.18
2023-03-07T14:08:11.046Z,8.24
2023-03-07T14:10:45.772Z,8.25
2023-03-07T14:13:39.393Z,8.21
2023-03-07T14:16:20.160Z,8.20
2023-03-07T14:18:58.719Z,8.11
2023-03-07T14:21:39.292Z,8.21
2023-03-07T14:24:24.020Z,8.18
2023-03-07T14:26:57.653Z,8.19
2023-03-07T14:29:31.115Z,8.15
2023-03-07T14:32:03.921Z,8.18
2023-03-07T14:34:37.818Z,8.22
2023-03-07T14:37:13.273Z,8.29
2023-03-07T14:39:53.023Z,8.21
2023-03-07T14:42:29.053Z,8.17
2023-03-07T14:45:08.487Z,8.26
2023-03-07T14:47:53.021Z,8.27
2023-03-07T14:50:27.710Z,8.08
2023-03-07T14:53:03.678Z,8.15
2023-03-07T14:55:39.751Z,8.23
2023-03-07T14:58:17.156Z,8.19
2023-03-07T15:00:58.416Z,8.14
2023-03-07T15:03:39.561Z,8.12
2023-03-07T15:06:14.797Z,8.09
2023-03-07T15:08:49.202Z,8.15
2023-03-07T15:11:30.644Z,8.20
2023-03-07T15:14:04.937Z,8.19
2023-03-07T15:16:38.869Z,8.24
2023-03-07T15:19:15.391Z,8.27
2023-03-07T15:21:49.058Z,8.22
2023-03-07T15:25:04.751Z,8.16
2023-03-07T15:27:38.961Z,8.21
2023-03-07T15:30:19.806Z,8.11
2023-03-07T15:33:04.017Z,8.21
2023-03-07T15:35:36.689Z,8.14
2023-03-07T15:38:14.749Z,8.18
2023-03-07T15:40:47.797Z,8.13
2023-03-07T15:43:28.617Z,8.22
2023-03-07T15:50:01.912Z,8.19
2023-03-07T15:52:36.086Z,8.07
2023-03-07T15:55:17.667Z,8.03
2023-03-07T15:57:51.600Z,8.07
2023-03-07T16:00:28.803Z,8.11
2023-03-07T16:03:19.396Z,8.11
2023-03-07T16:05:52.541Z,8.02
2023-03-07T16:08:25.258Z,8.03
2023-03-07T16:10:59.887Z,7.95
2023-03-07T16:13:33.686Z,7.85
2023-03-07T16:16:15.597Z,7.88
2023-03-07T16:18:48.614Z,7.80
2023-03-07T16:21:21.755Z,7.77
2023-03-07T16:23:54.287Z,7.82
2023-03-07T16:26:27.229Z,7.83
2023-03-07T16:29:00.654Z,7.78
2023-03-07T16:31:34.646Z,7.82
2023-03-07T16:34:07.349Z,7.79
2023-03-07T16:36:40.127Z,7.74
2023-03-07T16:39:13.507Z,7.75
2023-03-07T16:41:48.575Z,7.71
2023-03-07T16:44:22.343Z,7.71
2023-03-07T16:47:00.016Z,7.72
2023-03-07T16:49:32.652Z,7.70
2023-03-07T16:52:06.743Z,7.67
2023-03-07T16:54:39.569Z,7.56
2023-03-07T16:57:13.710Z,7.62
2023-03-07T16:59:47.755Z,7.58
2023-03-07T17:02:22.678Z,7.60
2023-03-07T17:04:55.490Z,7.59
2023-03-07T17:07:28.344Z,7.59
2023-03-07T17:10:01.141Z,7.54
2023-03-07T17:12:34.415Z,7.54
2023-03-07T17:15:07.775Z,7.57
2023-03-07T17:17:41.863Z,7.54
2023-03-07T17:20:14.954Z,7.52
2023-03-07T17:22:47.692Z,7.51
2023-03-07T17:25:20.628Z,7.50
2023-03-07T17:27:55.134Z,7.47
2023-03-07T17:30:28.894Z,7.49
2023-03-07T17:33:02.796Z,7.44
2023-03-07T17:35:35.520Z,7.43
2023-03-07T17:38:08.301Z,7.40
2023-03-07T17:40:41.109Z,7.38
2023-03-07T17:43:14.234Z,7.36
2023-03-07T17:45:46.752Z,7.34
2023-03-07T17:48:24.879Z,7.28
2023-03-07T17:50:57.622Z,7.14
2023-03-07T17:53:30.741Z,7.16
2023-03-07T17:56:07.656Z,7.27
2023-03-07T17:58:40.952Z,7.06
2023-03-07T18:01:19.506Z,7.11
2023-03-07T18:03:56.440Z,7.02
2023-03-07T18:06:38.419Z,7.01
2023-03-07T18:09:13.744Z,6.99
2023-03-07T18:11:47.608Z,7.05
2023-03-07T18:14:23.121Z,6.99
2023-03-07T18:16:55.807Z,7.01
2023-03-07T18:19:30.241Z,6.93
2023-03-07T18:22:02.841Z,7.00
2023-03-07T18:24:35.847Z,6.97
2023-03-07T18:27:10.191Z,6.88
2023-03-07T18:29:42.988Z,6.87
2023-03-07T18:32:15.725Z,6.93
2023-03-07T18:34:52.236Z,6.88
2023-03-07T18:37:24.908Z,6.87
2023-03-07T18:39:57.797Z,6.83
2023-03-07T18:42:30.564Z,6.74
2023-03-07T18:45:03.378Z,6.73
2023-03-07T18:47:36.028Z,6.76
2023-03-07T18:50:12.461Z,6.70
2023-03-07T18:52:45.165Z,6.71
2023-03-07T18:55:18.093Z,6.68
2023-03-07T18:57:50.816Z,6.64
2023-03-07T19:00:24.013Z,6.67
2023-03-07T19:02:56.634Z,6.70
2023-03-07T19:05:30.823Z,6.63
2023-03-07T19:08:03.394Z,6.59
2023-03-07T19:10:37.422Z,6.58
2023-03-07T19:13:10.431Z,6.61
2023-03-07T19:15:44.958Z,6.60
2023-03-07T19:18:17.686Z,6.56
2023-03-07T19:20:52.244Z,6.57
2023-03-07T19:23:24.897Z,6.55
2023-03-07T19:25:57.599Z,6.56
2023-03-07T19:28:30.191Z,6.56
2023-03-07T19:31:07.191Z,6.49
2023-03-07T19:33:39.974Z,6.54
2023-03-07T19:36:14.700Z,6.50
2023-03-07T19:38:48.224Z,6.50
2023-03-07T19:41:21.978Z,6.48
2023-03-07T19:43:56.013Z,6.48
2023-03-07T19:46:28.723Z,6.45
2023-03-07T19:49:01.270Z,6.44
2023-03-07T19:51:35.664Z,6.44
2023-03-07T19:54:09.133Z,6.41
2023-03-07T19:56:42.652Z,6.48
2023-03-07T19:59:15.383Z,6.41
2023-03-07T20:01:48.281Z,6.43
2023-03-07T20:04:21.006Z,6.39
2023-03-07T20:06:55.050Z,6.40
2023-03-07T20:09:27.879Z,6.36
2023-03-07T20:12:00.776Z,6.33
2023-03-07T20:14:33.353Z,6.39
2023-03-07T20:17:06.254Z,6.32
2023-03-07T20:19:39.140Z,6.36
2023-03-07T20:22:13.062Z,6.37
2023-03-07T20:24:45.804Z,6.29
2023-03-07T20:27:21.777Z,6.27
2023-03-07T20:29:54.320Z,6.32
2023-03-07T20:32:26.919Z,6.28
2023-03-07T20:35:03.402Z,6.25
2023-03-07T20:37:37.492Z,6.20
2023-03-07T20:40:10.842Z,6.23
2023-03-07T20:42:43.484Z,6.21
2023-03-07T20:45:16.009Z,6.24
2023-03-07T20:47:48.613Z,6.24
2023-03-07T20:50:21.199Z,6.24
2023-03-07T20:52:55.183Z,6.19
2023-03-07T20:55:29.160Z,6.18
2023-03-07T20:58:01.784Z,6.16
2023-03-07T21:00:34.648Z,6.17
2023-03-07T21:03:09.877Z,6.19
2023-03-07T21:05:42.544Z,6.19
2023-03-07T21:08:16.789Z,6.18
2023-03-07T21:10:58.067Z,6.18
2023-03-07T21:13:30.981Z,6.23
2023-03-07T21:16:04.485Z,6.15
2023-03-07T21:18:37.473Z,6.16
2023-03-07T21:21:11.240Z,6.14
2023-03-07T21:23:45.561Z,6.11
2023-03-07T21:26:19.192Z,6.07
2023-03-07T21:28:52.087Z,6.13
2023-03-07T21:31:25.434Z,6.11
2023-03-07T21:33:58.804Z,6.06
2023-03-07T21:36:32.314Z,6.06
2023-03-07T21:39:08.166Z,6.00
2023-03-07T21:41:40.885Z,6.05
2023-03-07T21:44:14.384Z,6.04
2023-03-07T21:46:46.978Z,6.00
2023-03-07T21:49:19.555Z,5.98
2023-03-07T21:51:52.103Z,5.96
2023-03-07T21:54:26.188Z,6.02
2023-03-07T21:56:58.747Z,6.01
2023-03-07T21:59:33.506Z,5.96
2023-03-07T22:02:06.105Z,5.93
2023-03-07T22:04:38.862Z,5.97
2023-03-07T22:07:11.434Z,5.88
2023-03-07T22:09:45.498Z,5.83
2023-03-07T22:12:18.112Z,5.91
2023-03-07T22:14:52.644Z,5.93
2023-03-07T22:17:25.319Z,5.92
2023-03-07T22:19:58.117Z,5.94
2023-03-07T22:22:30.729Z,5.88
2023-03-07T22:25:05.121Z,5.82
2023-03-07T22:27:38.307Z,5.79
2023-03-07T22:30:11.462Z,5.84
2023-03-07T22:32:44.897Z,5.80
2023-03-07T22:35:17.549Z,5.82
2023-03-07T22:37:50.156Z,5.76
2023-03-07T22:40:24.070Z,5.76
2023-03-07T22:42:56.739Z,5.78
2023-03-07T22:45:29.481Z,5.68
2023-03-07T22:48:02.010Z,5.71
2023-03-07T22:50:34.628Z,5.71
2023-03-07T22:53:07.164Z,5.71
2023-03-07T22:55:42.921Z,5.64
2023-03-07T22:58:15.444Z,5.68
2023-03-07T23:00:48.192Z,5.62
2023-03-07T23:03:20.735Z,5.65
2023-03-07T23:05:54.122Z,5.63
2023-03-07T23:08:26.643Z,5.59
2023-03-07T23:11:02.433Z,5.59
2023-03-07T23:13:35.283Z,5.59
2023-03-07T23:16:09.881Z,5.54
2023-03-07T23:18:43.277Z,5.55
2023-03-07T23:21:17.401Z,5.53
2023-03-07T23:23:50.816Z,5.49
2023-03-07T23:26:26.114Z,5.50
2023-03-07T23:28:58.929Z,5.52
2023-03-07T23:31:32.388Z,5.47
2023-03-07T23:34:06.112Z,5.48
2023-03-07T23:36:38.771Z,5.50
2023-03-07T23:39:11.430Z,5.42
2023-03-07T23:41:46.217Z,5.44
2023-03-07T23:44:20.936Z,5.44
2023-03-07T23:46:53.577Z,5.41
2023-03-07T23:49:26.132Z,5.42
2023-03-07T23:52:00.080Z,5.43
2023-03-07T23:54:32.636Z,5.41
2023-03-07T23:57:06.819Z,5.44
2023-03-07T23:59:39.295Z,5.40
